sensor_id;sensor_type;location;lat;lon;timestamp;temperature;humidity
51982;DHT22;37998;53.416;6.730;2023-03-01T00:01:24;2.50;99.90
51982;DHT22;37998;53.416;6.730;2023-03-01T00:03:50;2.40;99.90
51982;DHT22;37998;53.416;6.730;2023-03-01T00:06:16;2.40;99.90
51982;DHT22;37998;53.416;6.730;2023-03-01T00:08:42;2.60;99.90
51982;DHT22;37998;53.416;6.730;2023-03-01T00:13:43;2.40;99.90
51982;DHT22;37998;53.416;6.730;2023-03-01T00:16:25;2.40;99.90
51982;DHT22;37998;53.416;6.730;2023-03-01T00:18:51;2.40;99.90
51982;DHT22;37998;53.416;6.730;2023-03-01T00:21:17;2.40;99.90
51982;DHT22;37998;53.416;6.730;2023-03-01T00:23:45;2.40;99.90
51982;DHT22;37998;53.416;6.730;2023-03-01T00:26:13;2.40;99.90
51982;DHT22;37998;53.416;6.730;2023-03-01T00:28:39;2.30;99.90
51982;DHT22;37998;53.416;6.730;2023-03-01T00:31:16;2.30;99.90
51982;DHT22;37998;53.416;6.730;2023-03-01T00:33:43;2.30;99.90
51982;DHT22;37998;53.416;6.730;2023-03-01T00:36:10;2.30;99.90
51982;DHT22;37998;53.416;6.730;2023-03-01T00:38:37;2.30;99.90
51982;DHT22;37998;53.416;6.730;2023-03-01T00:41:13;2.30;99.90
51982;DHT22;37998;53.416;6.730;2023-03-01T00:43:39;2.40;99.90
51982;DHT22;37998;53.416;6.730;2023-03-01T00:46:07;2.20;99.90
51982;DHT22;37998;53.416;6.730;2023-03-01T00:48:33;2.20;99.90
51982;DHT22;37998;53.416;6.730;2023-03-01T00:51:07;2.20;99.90
51982;DHT22;37998;53.416;6.730;2023-03-01T00:53:34;2.20;99.90
51982;DHT22;37998;53.416;6.730;2023-03-01T00:56:00;2.10;99.90
51982;DHT22;37998;53.416;6.730;2023-03-01T00:58:26;2.10;99.90
51982;DHT22;37998;53.416;6.730;2023-03-01T01:00:52;2.10;99.90
51982;DHT22;37998;53.416;6.730;2023-03-01T01:03:19;2.00;99.90
51982;DHT22;37998;53.416;6.730;2023-03-01T01:05:45;1.90;99.90
51982;DHT22;37998;53.416;6.730;2023-03-01T01:08:11;1.90;99.90
51982;DHT22;37998;53.416;6.730;2023-03-01T01:10:36;1.90;99.90
51982;DHT22;37998;53.416;6.730;2023-03-01T01:13:02;1.80;99.90
51982;DHT22;37998;53.416;6.730;2023-03-01T01:15:29;1.90;99.90
51982;DHT22;37998;53.416;6.730;2023-03-01T01:17:54;1.90;99.90
51982;DHT22;37998;53.416;6.730;2023-03-01T01:20:20;1.90;99.90
51982;DHT22;37998;53.416;6.730;2023-03-01T01:22:46;1.80;99.90
51982;DHT22;37998;53.416;6.730;2023-03-01T01:25:12;1.80;99.90
51982;DHT22;37998;53.416;6.730;2023-03-01T01:27:37;1.80;99.90
51982;DHT22;37998;53.416;6.730;2023-03-01T01:30:04;1.80;99.90
51982;DHT22;37998;53.416;6.730;2023-03-01T01:32:30;1.80;99.90
51982;DHT22;37998;53.416;6.730;2023-03-01T01:34:56;1.80;99.90
51982;DHT22;37998;53.416;6.730;2023-03-01T01:37:22;1.70;99.90
51982;DHT22;37998;53.416;6.730;2023-03-01T01:39:48;1.60;99.90
51982;DHT22;37998;53.416;6.730;2023-03-01T01:42:17;1.60;99.90
51982;DHT22;37998;53.416;6.730;2023-03-01T01:44:46;1.50;99.90
51982;DHT22;37998;53.416;6.730;2023-03-01T01:47:18;1.40;99.90
51982;DHT22;37998;53.416;6.730;2023-03-01T01:49:49;1.40;99.90
51982;DHT22;37998;53.416;6.730;2023-03-01T01:52:17;1.40;99.90
51982;DHT22;37998;53.416;6.730;2023-03-01T01:54:52;1.30;99.90
51982;DHT22;37998;53.416;6.730;2023-03-01T01:57:22;1.40;99.90
51982;DHT22;37998;53.416;6.730;2023-03-01T01:59:52;1.30;99.90
51982;DHT22;37998;53.416;6.730;2023-03-01T02:02:20;1.30;99.90
51982;DHT22;37998;53.416;6.730;2023-03-01T02:04:47;1.30;99.90
51982;DHT22;37998;53.416;6.730;2023-03-01T02:07:19;1.30;99.90
51982;DHT22;37998;53.416;6.730;2023-03-01T02:09:48;1.30;99.90
51982;DHT22;37998;53.416;6.730;2023-03-01T02:12:17;1.30;99.90
51982;DHT22;37998;53.416;6.730;2023-03-01T02:14:43;1.30;99.90
51982;DHT22;37998;53.416;6.730;2023-03-01T02:17:10;1.30;99.90
51982;DHT22;37998;53.416;6.730;2023-03-01T02:30:25;1.20;99.90
51982;DHT22;37998;53.416;6.730;2023-03-01T02:32:52;1.20;99.90
51982;DHT22;37998;53.416;6.730;2023-03-01T02:35:19;1.20;99.90
51982;DHT22;37998;53.416;6.730;2023-03-01T02:37:46;1.10;99.90
51982;DHT22;37998;53.416;6.730;2023-03-01T02:40:17;1.00;99.90
51982;DHT22;37998;53.416;6.730;2023-03-01T02:42:53;1.00;99.90
51982;DHT22;37998;53.416;6.730;2023-03-01T02:45:20;1.00;99.90
51982;DHT22;37998;53.416;6.730;2023-03-01T02:47:45;1.00;99.90
51982;DHT22;37998;53.416;6.730;2023-03-01T02:50:41;1.00;99.90
51982;DHT22;37998;53.416;6.730;2023-03-01T02:53:16;0.90;99.90
51982;DHT22;37998;53.416;6.730;2023-03-01T02:55:45;0.70;99.90
51982;DHT22;37998;53.416;6.730;2023-03-01T02:58:11;0.70;99.90
51982;DHT22;37998;53.416;6.730;2023-03-01T03:00:39;0.60;99.90
51982;DHT22;37998;53.416;6.730;2023-03-01T03:03:12;0.50;99.90
51982;DHT22;37998;53.416;6.730;2023-03-01T03:05:38;0.40;99.90
51982;DHT22;37998;53.416;6.730;2023-03-01T03:08:04;0.40;99.90
51982;DHT22;37998;53.416;6.730;2023-03-01T03:10:33;0.40;99.90
51982;DHT22;37998;53.416;6.730;2023-03-01T03:13:10;0.40;99.90
51982;DHT22;37998;53.416;6.730;2023-03-01T03:15:36;0.50;99.90
51982;DHT22;37998;53.416;6.730;2023-03-01T03:18:06;0.50;99.90
51982;DHT22;37998;53.416;6.730;2023-03-01T03:20:32;0.50;99.90
51982;DHT22;37998;53.416;6.730;2023-03-01T03:22:58;0.60;99.90
51982;DHT22;37998;53.416;6.730;2023-03-01T03:25:26;0.60;99.90
51982;DHT22;37998;53.416;6.730;2023-03-01T03:27:53;0.70;99.90
51982;DHT22;37998;53.416;6.730;2023-03-01T03:30:30;0.70;99.90
51982;DHT22;37998;53.416;6.730;2023-03-01T03:32:57;0.70;99.90
51982;DHT22;37998;53.416;6.730;2023-03-01T03:35:29;0.80;99.90
51982;DHT22;37998;53.416;6.730;2023-03-01T03:37:56;0.90;99.90
51982;DHT22;37998;53.416;6.730;2023-03-01T03:42:54;0.30;99.90
51982;DHT22;37998;53.416;6.730;2023-03-01T03:45:20;0.60;99.90
51982;DHT22;37998;53.416;6.730;2023-03-01T03:47:46;0.50;99.90
51982;DHT22;37998;53.416;6.730;2023-03-01T03:50:14;0.50;99.90
51982;DHT22;37998;53.416;6.730;2023-03-01T03:52:40;0.50;99.90
51982;DHT22;37998;53.416;6.730;2023-03-01T03:55:07;0.50;99.90
51982;DHT22;37998;53.416;6.730;2023-03-01T03:57:42;0.50;99.90
51982;DHT22;37998;53.416;6.730;2023-03-01T04:00:12;0.40;99.90
51982;DHT22;37998;53.416;6.730;2023-03-01T04:02:39;0.30;99.90
51982;DHT22;37998;53.416;6.730;2023-03-01T04:05:06;0.20;99.90
51982;DHT22;37998;53.416;6.730;2023-03-01T04:07:34;0.20;99.90
51982;DHT22;37998;53.416;6.730;2023-03-01T04:10:00;0.20;99.90
51982;DHT22;37998;53.416;6.730;2023-03-01T04:12:26;0.20;99.90
51982;DHT22;37998;53.416;6.730;2023-03-01T04:14:51;0.20;99.90
51982;DHT22;37998;53.416;6.730;2023-03-01T04:17:17;0.20;99.90
51982;DHT22;37998;53.416;6.730;2023-03-01T04:19:44;0.10;99.90
51982;DHT22;37998;53.416;6.730;2023-03-01T04:22:14;0.10;99.90
51982;DHT22;37998;53.416;6.730;2023-03-01T04:24:44;0.20;99.90
51982;DHT22;37998;53.416;6.730;2023-03-01T04:27:11;0.20;99.90
51982;DHT22;37998;53.416;6.730;2023-03-01T04:29:37;0.20;99.90
51982;DHT22;37998;53.416;6.730;2023-03-01T04:32:02;0.20;99.90
51982;DHT22;37998;53.416;6.730;2023-03-01T04:34:29;0.20;99.90
51982;DHT22;37998;53.416;6.730;2023-03-01T04:36:55;0.20;99.90
51982;DHT22;37998;53.416;6.730;2023-03-01T04:39:21;0.20;99.90
51982;DHT22;37998;53.416;6.730;2023-03-01T04:41:47;0.20;99.90
51982;DHT22;37998;53.416;6.730;2023-03-01T04:44:13;0.20;99.90
51982;DHT22;37998;53.416;6.730;2023-03-01T04:46:39;0.20;99.90
51982;DHT22;37998;53.416;6.730;2023-03-01T04:49:04;0.20;99.90
51982;DHT22;37998;53.416;6.730;2023-03-01T04:51:31;0.30;99.90
51982;DHT22;37998;53.416;6.730;2023-03-01T04:53:58;0.20;99.90
51982;DHT22;37998;53.416;6.730;2023-03-01T04:56:24;0.20;99.90
51982;DHT22;37998;53.416;6.730;2023-03-01T04:58:52;0.30;99.90
51982;DHT22;37998;53.416;6.730;2023-03-01T05:01:19;0.30;99.90
51982;DHT22;37998;53.416;6.730;2023-03-01T05:03:50;0.30;99.90
51982;DHT22;37998;53.416;6.730;2023-03-01T05:06:18;0.30;99.90
51982;DHT22;37998;53.416;6.730;2023-03-01T05:08:44;0.30;99.90
51982;DHT22;37998;53.416;6.730;2023-03-01T05:11:10;0.40;99.90
51982;DHT22;37998;53.416;6.730;2023-03-01T05:13:37;0.40;99.90
51982;DHT22;37998;53.416;6.730;2023-03-01T05:16:05;0.40;99.90
51982;DHT22;37998;53.416;6.730;2023-03-01T05:18:33;0.40;99.90
51982;DHT22;37998;53.416;6.730;2023-03-01T05:21:05;0.40;99.90
51982;DHT22;37998;53.416;6.730;2023-03-01T05:23:32;0.40;99.90
51982;DHT22;37998;53.416;6.730;2023-03-01T05:25:59;0.30;99.90
51982;DHT22;37998;53.416;6.730;2023-03-01T05:28:26;0.30;99.90
51982;DHT22;37998;53.416;6.730;2023-03-01T05:30:53;0.30;99.90
51982;DHT22;37998;53.416;6.730;2023-03-01T05:33:19;0.30;99.90
51982;DHT22;37998;53.416;6.730;2023-03-01T05:35:47;0.30;99.90
51982;DHT22;37998;53.416;6.730;2023-03-01T05:38:14;0.30;99.90
51982;DHT22;37998;53.416;6.730;2023-03-01T05:40:42;0.30;99.90
51982;DHT22;37998;53.416;6.730;2023-03-01T05:43:09;0.30;99.90
51982;DHT22;37998;53.416;6.730;2023-03-01T05:45:36;0.20;99.90
51982;DHT22;37998;53.416;6.730;2023-03-01T05:48:03;0.20;99.90
51982;DHT22;37998;53.416;6.730;2023-03-01T05:50:36;0.20;99.90
51982;DHT22;37998;53.416;6.730;2023-03-01T05:53:14;0.20;99.90
51982;DHT22;37998;53.416;6.730;2023-03-01T05:55:41;0.20;99.90
51982;DHT22;37998;53.416;6.730;2023-03-01T05:58:14;0.20;99.90
51982;DHT22;37998;53.416;6.730;2023-03-01T06:00:40;0.50;99.90
51982;DHT22;37998;53.416;6.730;2023-03-01T06:03:06;0.20;99.90
51982;DHT22;37998;53.416;6.730;2023-03-01T06:05:32;0.30;99.90
51982;DHT22;37998;53.416;6.730;2023-03-01T06:08:01;0.30;99.90
51982;DHT22;37998;53.416;6.730;2023-03-01T06:10:27;0.60;99.90
51982;DHT22;37998;53.416;6.730;2023-03-01T06:12:53;0.20;99.90
51982;DHT22;37998;53.416;6.730;2023-03-01T06:15:19;0.10;99.90
51982;DHT22;37998;53.416;6.730;2023-03-01T06:17:46;0.20;99.90
51982;DHT22;37998;53.416;6.730;2023-03-01T06:20:18;0.20;99.90
51982;DHT22;37998;53.416;6.730;2023-03-01T06:22:44;0.20;99.90
51982;DHT22;37998;53.416;6.730;2023-03-01T06:25:12;0.20;99.90
51982;DHT22;37998;53.416;6.730;2023-03-01T06:27:39;0.20;99.90
51982;DHT22;37998;53.416;6.730;2023-03-01T06:30:06;0.20;99.90
51982;DHT22;37998;53.416;6.730;2023-03-01T06:32:32;0.20;99.90
51982;DHT22;37998;53.416;6.730;2023-03-01T06:34:58;0.20;99.90
51982;DHT22;37998;53.416;6.730;2023-03-01T06:37:27;0.20;99.90
51982;DHT22;37998;53.416;6.730;2023-03-01T06:39:53;0.20;99.90
51982;DHT22;37998;53.416;6.730;2023-03-01T06:42:18;0.20;99.90
51982;DHT22;37998;53.416;6.730;2023-03-01T06:44:44;1.40;99.90
51982;DHT22;37998;53.416;6.730;2023-03-01T06:47:11;0.20;99.90
51982;DHT22;37998;53.416;6.730;2023-03-01T06:49:37;0.20;99.90
51982;DHT22;37998;53.416;6.730;2023-03-01T06:52:02;0.20;99.90
51982;DHT22;37998;53.416;6.730;2023-03-01T06:54:28;0.30;99.90
51982;DHT22;37998;53.416;6.730;2023-03-01T06:56:54;0.30;99.90
51982;DHT22;37998;53.416;6.730;2023-03-01T06:59:20;0.40;99.90
51982;DHT22;37998;53.416;6.730;2023-03-01T07:01:45;0.40;99.90
51982;DHT22;37998;53.416;6.730;2023-03-01T07:04:12;0.40;99.90
51982;DHT22;37998;53.416;6.730;2023-03-01T07:06:38;0.40;99.90
51982;DHT22;37998;53.416;6.730;2023-03-01T07:09:04;0.50;99.90
51982;DHT22;37998;53.416;6.730;2023-03-01T07:11:29;0.50;99.90
51982;DHT22;37998;53.416;6.730;2023-03-01T07:13:55;0.60;99.90
51982;DHT22;37998;53.416;6.730;2023-03-01T07:16:21;0.60;99.90
51982;DHT22;37998;53.416;6.730;2023-03-01T07:18:47;0.70;99.90
51982;DHT22;37998;53.416;6.730;2023-03-01T07:21:14;0.70;99.90
51982;DHT22;37998;53.416;6.730;2023-03-01T07:23:40;0.70;99.90
51982;DHT22;37998;53.416;6.730;2023-03-01T07:26:06;0.80;99.90
51982;DHT22;37998;53.416;6.730;2023-03-01T07:28:32;0.90;99.90
51982;DHT22;37998;53.416;6.730;2023-03-01T07:31:03;0.90;99.90
51982;DHT22;37998;53.416;6.730;2023-03-01T07:33:29;1.00;99.90
51982;DHT22;37998;53.416;6.730;2023-03-01T07:35:59;1.10;99.90
51982;DHT22;37998;53.416;6.730;2023-03-01T07:38:26;1.20;99.90
51982;DHT22;37998;53.416;6.730;2023-03-01T07:40:52;1.30;99.90
51982;DHT22;37998;53.416;6.730;2023-03-01T07:43:18;1.30;99.90
51982;DHT22;37998;53.416;6.730;2023-03-01T07:45:44;1.40;99.90
51982;DHT22;37998;53.416;6.730;2023-03-01T07:48:09;1.80;99.90
51982;DHT22;37998;53.416;6.730;2023-03-01T07:50:35;2.60;99.90
51982;DHT22;37998;53.416;6.730;2023-03-01T07:53:01;3.30;99.90
51982;DHT22;37998;53.416;6.730;2023-03-01T07:55:28;4.00;99.90
51982;DHT22;37998;53.416;6.730;2023-03-01T07:57:53;4.80;99.90
51982;DHT22;37998;53.416;6.730;2023-03-01T08:00:19;5.60;99.90
51982;DHT22;37998;53.416;6.730;2023-03-01T08:02:45;5.90;99.90
51982;DHT22;37998;53.416;6.730;2023-03-01T08:05:11;6.00;99.90
51982;DHT22;37998;53.416;6.730;2023-03-01T08:07:36;5.80;99.90
51982;DHT22;37998;53.416;6.730;2023-03-01T08:10:02;5.30;99.90
51982;DHT22;37998;53.416;6.730;2023-03-01T08:12:28;4.60;99.90
51982;DHT22;37998;53.416;6.730;2023-03-01T08:14:54;4.50;99.90
51982;DHT22;37998;53.416;6.730;2023-03-01T08:17:20;4.20;99.90
51982;DHT22;37998;53.416;6.730;2023-03-01T08:19:46;4.10;99.90
51982;DHT22;37998;53.416;6.730;2023-03-01T08:22:11;4.00;99.90
51982;DHT22;37998;53.416;6.730;2023-03-01T08:24:37;3.90;99.90
51982;DHT22;37998;53.416;6.730;2023-03-01T08:27:03;3.80;99.90
51982;DHT22;37998;53.416;6.730;2023-03-01T08:29:33;3.80;99.90
51982;DHT22;37998;53.416;6.730;2023-03-01T08:31:59;3.80;99.90
51982;DHT22;37998;53.416;6.730;2023-03-01T08:34:25;3.80;99.90
51982;DHT22;37998;53.416;6.730;2023-03-01T08:36:50;3.90;99.90
51982;DHT22;37998;53.416;6.730;2023-03-01T08:39:18;4.00;99.90
51982;DHT22;37998;53.416;6.730;2023-03-01T08:41:45;4.00;99.90
51982;DHT22;37998;53.416;6.730;2023-03-01T08:44:12;4.20;99.90
51982;DHT22;37998;53.416;6.730;2023-03-01T08:46:40;4.20;99.90
51982;DHT22;37998;53.416;6.730;2023-03-01T08:49:08;4.20;99.90
51982;DHT22;37998;53.416;6.730;2023-03-01T08:51:34;4.10;99.90
51982;DHT22;37998;53.416;6.730;2023-03-01T08:54:06;4.20;99.90
51982;DHT22;37998;53.416;6.730;2023-03-01T08:56:32;4.10;99.90
51982;DHT22;37998;53.416;6.730;2023-03-01T08:58:58;4.10;99.90
51982;DHT22;37998;53.416;6.730;2023-03-01T09:01:24;4.20;99.90
51982;DHT22;37998;53.416;6.730;2023-03-01T09:03:50;4.20;99.90
51982;DHT22;37998;53.416;6.730;2023-03-01T09:06:16;4.20;99.90
51982;DHT22;37998;53.416;6.730;2023-03-01T09:08:44;4.30;99.90
51982;DHT22;37998;53.416;6.730;2023-03-01T09:11:11;4.40;99.90
51982;DHT22;37998;53.416;6.730;2023-03-01T09:13:38;4.40;99.90
51982;DHT22;37998;53.416;6.730;2023-03-01T09:16:06;4.50;99.90
51982;DHT22;37998;53.416;6.730;2023-03-01T09:18:32;4.60;99.90
51982;DHT22;37998;53.416;6.730;2023-03-01T09:21:06;4.60;99.90
51982;DHT22;37998;53.416;6.730;2023-03-01T09:23:33;4.60;99.90
51982;DHT22;37998;53.416;6.730;2023-03-01T09:26:00;4.70;99.90
51982;DHT22;37998;53.416;6.730;2023-03-01T09:28:25;4.70;99.90
51982;DHT22;37998;53.416;6.730;2023-03-01T09:30:51;4.80;99.90
51982;DHT22;37998;53.416;6.730;2023-03-01T09:33:17;4.70;99.90
51982;DHT22;37998;53.416;6.730;2023-03-01T09:35:42;4.70;99.90
51982;DHT22;37998;53.416;6.730;2023-03-01T09:38:13;4.80;99.90
51982;DHT22;37998;53.416;6.730;2023-03-01T09:40:43;4.90;99.90
51982;DHT22;37998;53.416;6.730;2023-03-01T09:46:09;5.00;99.90
51982;DHT22;37998;53.416;6.730;2023-03-01T09:48:46;5.20;99.90
51982;DHT22;37998;53.416;6.730;2023-03-01T09:51:34;5.20;99.90
51982;DHT22;37998;53.416;6.730;2023-03-01T09:54:05;5.30;99.90
51982;DHT22;37998;53.416;6.730;2023-03-01T09:56:40;5.40;99.90
51982;DHT22;37998;53.416;6.730;2023-03-01T09:59:30;5.50;99.90
51982;DHT22;37998;53.416;6.730;2023-03-01T10:02:23;5.50;99.90
51982;DHT22;37998;53.416;6.730;2023-03-01T10:08:26;5.70;99.90
51982;DHT22;37998;53.416;6.730;2023-03-01T10:10:53;5.80;99.90
51982;DHT22;37998;53.416;6.730;2023-03-01T10:13:33;5.80;99.90
51982;DHT22;37998;53.416;6.730;2023-03-01T10:16:11;5.80;99.90
51982;DHT22;37998;53.416;6.730;2023-03-01T10:18:40;5.90;99.90
51982;DHT22;37998;53.416;6.730;2023-03-01T10:21:17;6.00;99.90
51982;DHT22;37998;53.416;6.730;2023-03-01T10:23:44;6.10;99.90
51982;DHT22;37998;53.416;6.730;2023-03-01T10:29:02;6.20;99.90
51982;DHT22;37998;53.416;6.730;2023-03-01T10:31:42;6.30;99.90
51982;DHT22;37998;53.416;6.730;2023-03-01T10:34:27;6.30;99.90
51982;DHT22;37998;53.416;6.730;2023-03-01T10:36:57;6.30;99.90
51982;DHT22;37998;53.416;6.730;2023-03-01T10:39:26;6.30;99.90
51982;DHT22;37998;53.416;6.730;2023-03-01T10:41:55;6.20;99.90
51982;DHT22;37998;53.416;6.730;2023-03-01T10:47:03;6.20;99.90
51982;DHT22;37998;53.416;6.730;2023-03-01T10:49:29;6.10;99.90
51982;DHT22;37998;53.416;6.730;2023-03-01T10:51:55;6.10;99.90
51982;DHT22;37998;53.416;6.730;2023-03-01T10:54:28;6.20;99.90
51982;DHT22;37998;53.416;6.730;2023-03-01T10:57:00;6.30;99.90
51982;DHT22;37998;53.416;6.730;2023-03-01T10:59:32;6.20;99.90
51982;DHT22;37998;53.416;6.730;2023-03-01T11:02:25;6.20;99.90
51982;DHT22;37998;53.416;6.730;2023-03-01T11:07:56;6.40;99.90
51982;DHT22;37998;53.416;6.730;2023-03-01T11:10:34;6.50;99.90
51982;DHT22;37998;53.416;6.730;2023-03-01T11:13:08;6.60;99.90
51982;DHT22;37998;53.416;6.730;2023-03-01T11:15:35;6.70;99.90
51982;DHT22;37998;53.416;6.730;2023-03-01T11:18:02;6.80;99.90
51982;DHT22;37998;53.416;6.730;2023-03-01T11:20:37;6.90;99.90
51982;DHT22;37998;53.416;6.730;2023-03-01T11:23:14;7.00;99.90
51982;DHT22;37998;53.416;6.730;2023-03-01T11:25:48;7.10;99.90
51982;DHT22;37998;53.416;6.730;2023-03-01T11:28:17;7.20;99.90
51982;DHT22;37998;53.416;6.730;2023-03-01T11:36:32;7.20;99.90
51982;DHT22;37998;53.416;6.730;2023-03-01T11:42:42;7.40;99.90
51982;DHT22;37998;53.416;6.730;2023-03-01T11:44:52;7.50;99.90
51982;DHT22;37998;53.416;6.730;2023-03-01T11:50:46;7.40;99.90
51982;DHT22;37998;53.416;6.730;2023-03-01T11:53:18;7.30;99.90
51982;DHT22;37998;53.416;6.730;2023-03-01T11:56:04;7.20;99.90
51982;DHT22;37998;53.416;6.730;2023-03-01T12:01:10;7.20;99.90
51982;DHT22;37998;53.416;6.730;2023-03-01T12:14:20;7.30;99.90
51982;DHT22;37998;53.416;6.730;2023-03-01T12:22:21;7.40;99.90
51982;DHT22;37998;53.416;6.730;2023-03-01T12:25:37;7.40;99.90
51982;DHT22;37998;53.416;6.730;2023-03-01T12:33:22;7.50;99.90
51982;DHT22;37998;53.416;6.730;2023-03-01T12:45:26;7.40;99.90
51982;DHT22;37998;53.416;6.730;2023-03-01T12:50:20;7.20;99.90
51982;DHT22;37998;53.416;6.730;2023-03-01T12:52:51;7.20;99.90
51982;DHT22;37998;53.416;6.730;2023-03-01T12:55:29;7.20;99.90
51982;DHT22;37998;53.416;6.730;2023-03-01T13:11:43;7.20;99.90
51982;DHT22;37998;53.416;6.730;2023-03-01T13:16:53;7.30;99.90
51982;DHT22;37998;53.416;6.730;2023-03-01T13:19:24;7.20;99.90
51982;DHT22;37998;53.416;6.730;2023-03-01T13:21:52;7.20;99.90
51982;DHT22;37998;53.416;6.730;2023-03-01T13:24:26;7.20;99.90
51982;DHT22;37998;53.416;6.730;2023-03-01T13:29:52;7.20;99.90
51982;DHT22;37998;53.416;6.730;2023-03-01T13:32:33;7.20;99.90
51982;DHT22;37998;53.416;6.730;2023-03-01T13:35:40;7.30;99.90
51982;DHT22;37998;53.416;6.730;2023-03-01T13:37:49;7.30;99.90
51982;DHT22;37998;53.416;6.730;2023-03-01T13:42:48;7.30;99.90
51982;DHT22;37998;53.416;6.730;2023-03-01T13:47:48;7.30;99.90
51982;DHT22;37998;53.416;6.730;2023-03-01T13:50:43;7.40;99.90
51982;DHT22;37998;53.416;6.730;2023-03-01T13:53:14;7.50;99.90
51982;DHT22;37998;53.416;6.730;2023-03-01T13:55:47;7.40;99.90
51982;DHT22;37998;53.416;6.730;2023-03-01T13:58:28;7.30;99.90
51982;DHT22;37998;53.416;6.730;2023-03-01T14:01:03;7.30;99.90
51982;DHT22;37998;53.416;6.730;2023-03-01T14:03:31;6.60;99.90
51982;DHT22;37998;53.416;6.730;2023-03-01T14:06:03;7.20;99.90
51982;DHT22;37998;53.416;6.730;2023-03-01T14:08:32;7.20;99.90
51982;DHT22;37998;53.416;6.730;2023-03-01T14:21:34;7.10;99.90
51982;DHT22;37998;53.416;6.730;2023-03-01T14:24:02;7.10;99.90
51982;DHT22;37998;53.416;6.730;2023-03-01T14:26:27;7.20;99.90
51982;DHT22;37998;53.416;6.730;2023-03-01T14:28:55;7.20;99.90
51982;DHT22;37998;53.416;6.730;2023-03-01T14:31:38;7.20;99.90
51982;DHT22;37998;53.416;6.730;2023-03-01T14:34:05;7.30;99.90
51982;DHT22;37998;53.416;6.730;2023-03-01T14:36:33;7.40;99.90
51982;DHT22;37998;53.416;6.730;2023-03-01T14:38:59;7.40;99.90
51982;DHT22;37998;53.416;6.730;2023-03-01T14:41:32;7.40;99.90
51982;DHT22;37998;53.416;6.730;2023-03-01T14:44:11;7.40;99.90
51982;DHT22;37998;53.416;6.730;2023-03-01T14:46:40;7.30;99.90
51982;DHT22;37998;53.416;6.730;2023-03-01T14:51:42;7.30;99.90
51982;DHT22;37998;53.416;6.730;2023-03-01T14:54:41;7.30;99.90
51982;DHT22;37998;53.416;6.730;2023-03-01T14:57:19;7.20;99.90
51982;DHT22;37998;53.416;6.730;2023-03-01T14:59:47;7.20;99.90
51982;DHT22;37998;53.416;6.730;2023-03-01T15:02:17;7.10;99.90
51982;DHT22;37998;53.416;6.730;2023-03-01T15:04:50;7.10;99.90
51982;DHT22;37998;53.416;6.730;2023-03-01T15:07:17;7.10;99.90
51982;DHT22;37998;53.416;6.730;2023-03-01T15:09:43;7.00;99.90
51982;DHT22;37998;53.416;6.730;2023-03-01T15:14:57;6.90;99.90
51982;DHT22;37998;53.416;6.730;2023-03-01T15:17:32;6.90;99.90
51982;DHT22;37998;53.416;6.730;2023-03-01T15:19:59;6.90;99.90
51982;DHT22;37998;53.416;6.730;2023-03-01T15:22:26;6.90;99.90
51982;DHT22;37998;53.416;6.730;2023-03-01T15:24:53;6.80;99.90
51982;DHT22;37998;53.416;6.730;2023-03-01T15:27:21;6.80;99.90
51982;DHT22;37998;53.416;6.730;2023-03-01T15:29:59;6.70;99.90
51982;DHT22;37998;53.416;6.730;2023-03-01T15:32:28;6.70;99.90
51982;DHT22;37998;53.416;6.730;2023-03-01T15:34:54;6.60;99.90
51982;DHT22;37998;53.416;6.730;2023-03-01T15:37:40;6.60;99.90
51982;DHT22;37998;53.416;6.730;2023-03-01T15:40:20;6.60;99.90
51982;DHT22;37998;53.416;6.730;2023-03-01T15:42:46;6.50;99.90
51982;DHT22;37998;53.416;6.730;2023-03-01T15:47:50;6.50;99.90
51982;DHT22;37998;53.416;6.730;2023-03-01T15:50:21;6.50;99.90
51982;DHT22;37998;53.416;6.730;2023-03-01T15:52:47;6.50;99.90
51982;DHT22;37998;53.416;6.730;2023-03-01T15:57:44;6.40;99.90
51982;DHT22;37998;53.416;6.730;2023-03-01T16:00:11;6.40;99.90
51982;DHT22;37998;53.416;6.730;2023-03-01T16:02:42;6.30;99.90
51982;DHT22;37998;53.416;6.730;2023-03-01T16:05:30;6.30;99.90
51982;DHT22;37998;53.416;6.730;2023-03-01T16:07:57;6.30;99.90
51982;DHT22;37998;53.416;6.730;2023-03-01T16:10:23;6.20;99.90
51982;DHT22;37998;53.416;6.730;2023-03-01T16:12:50;6.20;99.90
51982;DHT22;37998;53.416;6.730;2023-03-01T16:15:21;6.20;99.90
51982;DHT22;37998;53.416;6.730;2023-03-01T16:17:47;6.20;99.90
51982;DHT22;37998;53.416;6.730;2023-03-01T16:20:14;6.20;99.90
51982;DHT22;37998;53.416;6.730;2023-03-01T16:22:43;6.10;99.90
51982;DHT22;37998;53.416;6.730;2023-03-01T16:25:15;6.10;99.90
51982;DHT22;37998;53.416;6.730;2023-03-01T16:27:46;6.00;99.90
51982;DHT22;37998;53.416;6.730;2023-03-01T16:30:13;5.90;99.90
51982;DHT22;37998;53.416;6.730;2023-03-01T16:32:40;5.90;99.90
51982;DHT22;37998;53.416;6.730;2023-03-01T16:35:07;5.80;99.90
51982;DHT22;37998;53.416;6.730;2023-03-01T16:37:35;5.80;99.90
51982;DHT22;37998;53.416;6.730;2023-03-01T16:40:01;5.80;99.90
51982;DHT22;37998;53.416;6.730;2023-03-01T16:42:33;5.70;99.90
51982;DHT22;37998;53.416;6.730;2023-03-01T16:44:59;5.70;99.90
51982;DHT22;37998;53.416;6.730;2023-03-01T16:47:26;5.60;99.90
51982;DHT22;37998;53.416;6.730;2023-03-01T16:49:52;5.50;99.90
51982;DHT22;37998;53.416;6.730;2023-03-01T16:52:18;5.50;99.90
51982;DHT22;37998;53.416;6.730;2023-03-01T16:54:44;5.40;99.90
51982;DHT22;37998;53.416;6.730;2023-03-01T16:57:10;5.40;99.90
51982;DHT22;37998;53.416;6.730;2023-03-01T16:59:36;5.30;99.90
51982;DHT22;37998;53.416;6.730;2023-03-01T17:02:03;5.30;99.90
51982;DHT22;37998;53.416;6.730;2023-03-01T18:51:52;4.10;99.90
51982;DHT22;37998;53.416;6.730;2023-03-01T18:54:18;4.50;99.90
51982;DHT22;37998;53.416;6.730;2023-03-01T18:56:44;4.40;99.90
51982;DHT22;37998;53.416;6.730;2023-03-01T18:59:10;4.30;99.90
51982;DHT22;37998;53.416;6.730;2023-03-01T19:01:36;4.20;99.90
51982;DHT22;37998;53.416;6.730;2023-03-01T19:04:02;4.20;99.90
51982;DHT22;37998;53.416;6.730;2023-03-01T19:06:31;4.10;99.90
51982;DHT22;37998;53.416;6.730;2023-03-01T19:08:59;4.10;99.90
51982;DHT22;37998;53.416;6.730;2023-03-01T19:11:25;4.00;99.90
51982;DHT22;37998;53.416;6.730;2023-03-01T19:13:58;4.00;99.90
51982;DHT22;37998;53.416;6.730;2023-03-01T19:16:26;4.30;99.90
51982;DHT22;37998;53.416;6.730;2023-03-01T19:19:00;4.00;99.90
51982;DHT22;37998;53.416;6.730;2023-03-01T19:21:28;4.00;99.90
51982;DHT22;37998;53.416;6.730;2023-03-01T19:23:56;4.00;99.90
51982;DHT22;37998;53.416;6.730;2023-03-01T19:26:24;4.00;99.90
51982;DHT22;37998;53.416;6.730;2023-03-01T19:28:51;4.00;99.90
51982;DHT22;37998;53.416;6.730;2023-03-01T19:31:19;4.00;99.90
51982;DHT22;37998;53.416;6.730;2023-03-01T19:33:46;4.00;99.90
51982;DHT22;37998;53.416;6.730;2023-03-01T19:36:13;4.00;99.90
51982;DHT22;37998;53.416;6.730;2023-03-01T19:38:40;4.00;99.90
51982;DHT22;37998;53.416;6.730;2023-03-01T19:41:11;4.00;99.90
51982;DHT22;37998;53.416;6.730;2023-03-01T19:43:37;4.10;99.90
51982;DHT22;37998;53.416;6.730;2023-03-01T19:46:05;4.10;99.90
51982;DHT22;37998;53.416;6.730;2023-03-01T19:48:31;4.10;99.90